createdAt,value
2022-09-23T00:01:17.337Z,91.24
2022-09-23T00:03:47.329Z,91.21
2022-09-23T00:06:19.986Z,91.16
2022-09-23T00:08:49.860Z,90.97
2022-09-23T00:11:21.272Z,91.05
2022-09-23T00:13:50.690Z,91.01
2022-09-23T00:16:22.639Z,90.93
2022-09-23T00:18:51.226Z,90.89
2022-09-23T00:21:20.810Z,90.57
2022-09-23T00:23:49.169Z,90.67
2022-09-23T00:26:19.329Z,90.99
2022-09-23T00:28:47.196Z,90.90
2022-09-23T00:31:20.766Z,91.03
2022-09-23T00:33:48.334Z,91.44
2022-09-23T00:36:16.834Z,91.26
2022-09-23T00:38:45.582Z,91.24
2022-09-23T00:41:16.365Z,91.47
2022-09-23T00:43:51.354Z,91.29
2022-09-23T00:46:27.972Z,91.42
2022-09-23T00:49:06.859Z,91.75
2022-09-23T00:51:37.812Z,91.47
2022-09-23T00:54:06.723Z,91.66
2022-09-23T00:56:34.347Z,91.73
2022-09-23T00:59:02.034Z,91.92
2022-09-23T01:01:30.226Z,92.45
2022-09-23T01:03:58.151Z,92.03
2022-09-23T01:06:26.599Z,91.98
2022-09-23T01:08:53.882Z,91.79
2022-09-23T01:11:42.734Z,91.66
2022-09-23T01:14:12.771Z,91.61
2022-09-23T01:16:48.837Z,91.59
2022-09-23T01:19:18.950Z,91.25
2022-09-23T01:22:05.442Z,91.59
2022-09-23T01:24:35.789Z,91.87
2022-09-23T01:27:39.766Z,91.49
2022-09-23T01:30:06.921Z,91.30
2022-09-23T01:32:44.098Z,91.01
2022-09-23T01:35:21.999Z,91.36
2022-09-23T01:38:18.151Z,91.03
2022-09-23T01:41:13.050Z,91.04
2022-09-23T01:43:49.186Z,90.91
2022-09-23T01:46:21.335Z,90.57
2022-09-23T01:49:17.530Z,90.70
2022-09-23T01:51:52.820Z,90.68
2022-09-23T01:54:29.400Z,91.07
2022-09-23T01:57:02.065Z,90.73
2022-09-23T01:59:30.863Z,91.35
2022-09-23T02:02:02.745Z,91.28
2022-09-23T02:04:41.340Z,91.44
2022-09-23T02:07:21.503Z,91.68
2022-09-23T02:09:56.028Z,91.64
2022-09-23T02:12:25.125Z,91.79
2022-09-23T02:15:32.732Z,91.54
2022-09-23T02:18:05.866Z,91.55
2022-09-23T02:20:35.653Z,91.57
2022-09-23T02:23:12.911Z,91.61
2022-09-23T02:26:03.822Z,91.84
2022-09-23T02:28:49.597Z,91.95
2022-09-23T02:31:28.667Z,92.05
2022-09-23T02:33:57.813Z,92.33
2022-09-23T02:37:00.110Z,92.29
2022-09-23T02:39:32.958Z,92.31
2022-09-23T02:42:06.387Z,92.36
2022-09-23T02:44:34.137Z,92.23
2022-09-23T02:47:01.503Z,92.18
2022-09-23T02:49:31.144Z,92.09
2022-09-23T02:52:03.935Z,91.90
2022-09-23T02:54:33.747Z,92.22
2022-09-23T02:57:03.116Z,92.23
2022-09-23T02:59:30.850Z,92.08
2022-09-23T03:02:20.923Z,92.02
2022-09-23T03:05:06.938Z,91.96
2022-09-23T03:07:53.049Z,91.89
2022-09-23T03:10:25.838Z,91.88
2022-09-23T03:13:15.192Z,91.55
2022-09-23T03:15:53.908Z,91.88
2022-09-23T03:18:45.564Z,91.67
2022-09-23T03:21:34.590Z,91.87
2022-09-23T03:24:05.167Z,91.85
2022-09-23T03:26:36.246Z,92.15
2022-09-23T03:29:06.089Z,92.05
2022-09-23T03:31:34.405Z,92.02
2022-09-23T03:34:04.368Z,92.26
2022-09-23T03:36:52.629Z,92.52
2022-09-23T03:39:34.019Z,92.66
2022-09-23T03:42:06.189Z,92.65
2022-09-23T03:44:40.163Z,92.87
2022-09-23T03:47:07.430Z,93.17
2022-09-23T03:49:37.146Z,93.10
2022-09-23T03:52:04.284Z,92.84
2022-09-23T03:54:31.522Z,92.64
2022-09-23T03:56:59.511Z,92.89
2022-09-23T03:59:27.590Z,92.80
2022-09-23T04:01:55.906Z,93.04
2022-09-23T04:04:23.110Z,92.96
2022-09-23T04:06:50.368Z,92.75
2022-09-23T04:09:17.809Z,92.49
2022-09-23T04:11:45.989Z,92.33
2022-09-23T04:14:13.837Z,92.17
2022-09-23T04:16:41.027Z,92.43
2022-09-23T04:19:11.729Z,92.38
2022-09-23T04:21:39.596Z,91.96
2022-09-23T04:24:07.560Z,92.41
2022-09-23T04:26:36.321Z,92.61
2022-09-23T04:29:05.530Z,91.93
2022-09-23T04:31:34.512Z,92.02
2022-09-23T04:34:01.798Z,92.22
2022-09-23T04:36:30.574Z,92.57
2022-09-23T04:38:58.049Z,92.59
2022-09-23T04:41:25.191Z,92.17
2022-09-23T04:43:52.969Z,92.67
2022-09-23T04:46:20.324Z,92.74
2022-09-23T04:48:47.462Z,93.08
2022-09-23T04:51:18.436Z,92.72
2022-09-23T04:53:47.469Z,93.23
2022-09-23T04:56:16.291Z,93.34
2022-09-23T04:58:44.308Z,93.42
2022-09-23T05:01:25.105Z,93.54
2022-09-23T05:03:54.518Z,93.40
2022-09-23T05:06:22.285Z,93.48
2022-09-23T05:08:52.092Z,93.37
2022-09-23T05:11:19.752Z,93.03
2022-09-23T05:13:52.802Z,92.64
2022-09-23T05:16:20.848Z,92.85
2022-09-23T05:18:49.087Z,92.99
2022-09-23T05:21:27.257Z,93.36
2022-09-23T05:23:56.838Z,92.57
2022-09-23T05:26:26.436Z,92.64
2022-09-23T05:28:54.686Z,92.95
2022-09-23T05:31:24.403Z,93.11
2022-09-23T05:33:54.177Z,92.77
2022-09-23T05:36:22.583Z,92.92
2022-09-23T05:38:51.342Z,92.48
2022-09-23T05:41:23.569Z,93.28
2022-09-23T05:43:52.486Z,93.36
2022-09-23T05:46:22.864Z,93.21
2022-09-23T05:48:50.825Z,93.20
2022-09-23T05:51:20.559Z,92.84
2022-09-23T05:53:49.029Z,92.76
2022-09-23T05:56:18.523Z,92.97
2022-09-23T05:58:46.426Z,92.75
2022-09-23T06:01:21.935Z,93.18
2022-09-23T06:03:49.709Z,92.68
2022-09-23T06:06:19.599Z,93.00
2022-09-23T06:08:48.127Z,92.75
2022-09-23T06:11:15.549Z,92.81
2022-09-23T06:13:43.929Z,92.56
2022-09-23T06:16:13.350Z,92.25
2022-09-23T06:18:44.910Z,92.10
2022-09-23T06:21:17.822Z,92.03
2022-09-23T06:23:45.850Z,92.26
2022-09-23T06:26:15.043Z,91.76
2022-09-23T06:28:43.892Z,91.45
2022-09-23T06:31:14.119Z,90.94
2022-09-23T06:33:43.131Z,90.99
2022-09-23T06:36:10.853Z,90.87
2022-09-23T06:38:45.114Z,90.74
2022-09-23T06:41:13.123Z,90.56
2022-09-23T06:43:40.746Z,90.56
2022-09-23T06:46:16.830Z,90.45
2022-09-23T06:48:46.342Z,90.45
2022-09-23T06:51:22.157Z,90.31
2022-09-23T06:53:49.923Z,90.30
2022-09-23T06:56:20.286Z,90.41
2022-09-23T06:58:49.548Z,90.08
2022-09-23T07:01:18.494Z,90.07
2022-09-23T07:03:47.965Z,90.00
2022-09-23T07:06:15.295Z,89.54
2022-09-23T07:08:47.451Z,89.43
2022-09-23T07:11:16.147Z,89.80
2022-09-23T07:13:44.341Z,89.72
2022-09-23T07:16:12.265Z,89.67
2022-09-23T07:18:40.159Z,89.75
2022-09-23T07:21:15.818Z,89.84
2022-09-23T07:23:46.516Z,89.67
2022-09-23T07:26:15.403Z,89.69
2022-09-23T07:28:44.003Z,89.56
2022-09-23T07:31:17.596Z,89.40
2022-09-23T07:33:46.820Z,89.64
2022-09-23T07:36:18.048Z,89.65
2022-09-23T07:38:48.045Z,89.86
2022-09-23T07:41:18.106Z,89.71
2022-09-23T07:43:46.613Z,89.02
2022-09-23T07:46:18.176Z,88.75
2022-09-23T07:48:46.209Z,87.69
2022-09-23T07:51:24.705Z,87.53
2022-09-23T07:53:53.906Z,87.20
2022-09-23T07:56:25.348Z,87.14
2022-09-23T07:59:02.197Z,87.09
2022-09-23T08:01:31.902Z,86.91
2022-09-23T08:04:01.121Z,87.11
2022-09-23T08:06:28.919Z,86.94
2022-09-23T08:08:59.127Z,85.86
2022-09-23T08:11:27.760Z,85.45
2022-09-23T08:13:55.686Z,85.45
2022-09-23T08:16:23.281Z,85.08
2022-09-23T08:18:51.099Z,84.93
2022-09-23T08:21:22.485Z,85.10
2022-09-23T08:23:51.670Z,85.43
2022-09-23T08:26:21.971Z,85.29
2022-09-23T08:28:50.783Z,85.18
2022-09-23T08:31:18.376Z,84.78
2022-09-23T08:33:47.025Z,84.55
2022-09-23T08:36:14.888Z,84.21
2022-09-23T08:38:42.225Z,84.01
2022-09-23T08:41:36.023Z,83.80
2022-09-23T08:44:12.395Z,83.59
2022-09-23T08:46:47.766Z,83.57
2022-09-23T08:49:22.182Z,82.97
2022-09-23T08:51:51.332Z,82.54
2022-09-23T08:54:19.107Z,82.14
2022-09-23T08:56:49.927Z,82.20
2022-09-23T08:59:41.341Z,82.10
2022-09-23T09:02:25.778Z,81.38
2022-09-23T09:04:57.500Z,81.14
2022-09-23T09:07:37.105Z,81.12
2022-09-23T09:10:16.794Z,80.77
2022-09-23T09:12:54.412Z,80.12
2022-09-23T09:15:27.310Z,79.92
2022-09-23T09:18:01.816Z,79.69
2022-09-23T09:20:46.827Z,78.78
2022-09-23T09:23:24.298Z,77.86
2022-09-23T09:25:52.287Z,77.79
2022-09-23T09:28:28.104Z,77.85
2022-09-23T09:30:58.538Z,76.98
2022-09-23T09:33:52.156Z,76.70
2022-09-23T09:36:43.954Z,76.76
2022-09-23T09:39:17.685Z,76.23
2022-09-23T09:41:58.948Z,75.83
2022-09-23T09:44:39.511Z,75.20
2022-09-23T09:47:15.496Z,74.09
2022-09-23T09:50:01.170Z,74.16
2022-09-23T09:52:30.186Z,73.66
2022-09-23T09:55:26.313Z,73.60
2022-09-23T09:58:05.754Z,73.38
2022-09-23T10:00:43.084Z,73.01
2022-09-23T10:03:13.856Z,72.79
2022-09-23T10:05:48.309Z,71.97
2022-09-23T10:08:36.722Z,71.40
2022-09-23T10:11:18.514Z,71.14
2022-09-23T10:14:01.744Z,70.46
2022-09-23T10:16:33.241Z,70.13
2022-09-23T10:19:02.286Z,70.26
2022-09-23T10:21:36.128Z,70.32
2022-09-23T10:24:06.455Z,70.26
2022-09-23T10:26:48.768Z,69.36
2022-09-23T10:29:32.255Z,67.96
2022-09-23T10:32:39.023Z,67.56
2022-09-23T10:35:09.988Z,66.51
2022-09-23T10:37:43.187Z,66.67
2022-09-23T10:40:49.810Z,66.81
2022-09-23T10:43:57.954Z,66.01
2022-09-23T10:46:46.610Z,65.86
2022-09-23T10:49:22.673Z,65.22
2022-09-23T10:52:06.210Z,64.85
2022-09-23T10:54:57.335Z,65.76
2022-09-23T10:57:43.119Z,65.80
2022-09-23T11:00:23.879Z,64.16
2022-09-23T11:03:34.148Z,63.68
2022-09-23T11:06:26.043Z,63.64
2022-09-23T11:09:10.959Z,62.91
2022-09-23T11:12:00.836Z,62.40
2022-09-23T11:15:03.428Z,62.46
2022-09-23T11:17:55.538Z,61.59
2022-09-23T11:20:56.591Z,60.12
2022-09-23T11:24:16.497Z,60.11
2022-09-23T11:27:05.847Z,60.25
2022-09-23T11:30:06.681Z,59.12
2022-09-23T11:35:42.050Z,58.27
2022-09-23T11:38:13.919Z,57.64
2022-09-23T11:40:44.068Z,57.28
2022-09-23T11:43:16.515Z,57.25
2022-09-23T11:46:08.618Z,57.34
2022-09-23T11:49:09.372Z,57.42
2022-09-23T11:52:10.536Z,56.24
2022-09-23T11:54:52.931Z,56.78
2022-09-23T11:57:48.909Z,56.90
2022-09-23T12:00:22.528Z,56.67
2022-09-23T12:03:09.738Z,55.92
2022-09-23T12:05:47.770Z,54.89
2022-09-23T12:08:33.066Z,54.69
2022-09-23T12:11:08.867Z,55.57
2022-09-23T12:13:44.980Z,55.83
2022-09-23T12:16:44.740Z,55.85
2022-09-23T12:19:20.961Z,56.19
2022-09-23T12:22:24.562Z,55.85
2022-09-23T12:24:58.711Z,55.32
2022-09-23T12:27:39.476Z,53.88
2022-09-23T12:30:19.540Z,53.58
2022-09-23T12:32:47.044Z,53.52
2022-09-23T12:35:26.152Z,53.89
2022-09-23T12:37:53.731Z,53.03
2022-09-23T12:40:31.830Z,53.08
2022-09-23T12:43:02.593Z,52.36
2022-09-23T12:45:34.285Z,52.98
2022-09-23T12:48:04.423Z,53.31
2022-09-23T12:50:52.045Z,53.39
2022-09-23T12:53:34.804Z,52.66
2022-09-23T12:56:16.185Z,51.65
2022-09-23T12:58:43.496Z,50.61
2022-09-23T13:01:21.795Z,51.00
2022-09-23T13:04:13.684Z,51.79
2022-09-23T13:06:57.827Z,51.44
2022-09-23T13:09:33.690Z,51.80
2022-09-23T13:12:03.931Z,51.39
2022-09-23T13:14:33.122Z,51.56
2022-09-23T13:17:01.114Z,52.74
2022-09-23T13:19:28.412Z,53.32
2022-09-23T13:22:09.699Z,53.21
2022-09-23T13:24:41.048Z,53.26
2022-09-23T13:27:22.330Z,53.23
2022-09-23T13:30:12.225Z,53.49
2022-09-23T13:32:44.901Z,53.48
2022-09-23T13:35:27.854Z,53.65
2022-09-23T13:37:55.664Z,53.44
2022-09-23T13:40:28.940Z,53.33
2022-09-23T13:43:18.348Z,53.66
2022-09-23T13:45:45.661Z,53.41
2022-09-23T13:48:15.997Z,52.63
2022-09-23T13:50:49.825Z,52.01
2022-09-23T13:53:22.847Z,52.32
2022-09-23T13:56:20.595Z,51.89
2022-09-23T13:58:49.240Z,51.87
2022-09-23T14:01:35.145Z,51.66
2022-09-23T14:04:03.030Z,51.39
2022-09-23T14:06:31.750Z,51.79
2022-09-23T14:09:01.729Z,52.44
2022-09-23T14:11:34.270Z,52.49
2022-09-23T14:14:07.675Z,52.42
2022-09-23T14:16:40.152Z,53.06
2022-09-23T14:19:11.835Z,52.81
2022-09-23T14:21:40.667Z,52.63
2022-09-23T14:24:10.911Z,52.70
2022-09-23T14:26:39.005Z,52.10
2022-09-23T14:29:09.087Z,51.87
2022-09-23T14:31:37.768Z,51.99
2022-09-23T14:34:04.976Z,52.12
2022-09-23T14:36:54.944Z,52.25
2022-09-23T14:39:22.298Z,52.00
2022-09-23T14:41:49.774Z,51.76
2022-09-23T14:44:25.411Z,51.84
2022-09-23T14:47:00.136Z,51.79
2022-09-23T14:49:28.228Z,51.79
2022-09-23T14:52:04.578Z,52.01
2022-09-23T14:54:32.806Z,52.80
2022-09-23T14:57:01.225Z,52.55
2022-09-23T14:59:36.208Z,52.91
2022-09-23T15:02:31.514Z,53.28
2022-09-23T15:05:20.529Z,53.42
2022-09-23T15:07:50.790Z,53.81
2022-09-23T15:10:31.279Z,53.99
2022-09-23T15:13:23.480Z,54.03
2022-09-23T15:15:55.616Z,53.76
2022-09-23T15:18:25.956Z,54.11
2022-09-23T15:20:55.997Z,54.66
2022-09-23T15:23:35.010Z,55.32
2022-09-23T15:26:14.844Z,55.20
2022-09-23T15:28:42.948Z,57.97
2022-09-23T15:31:19.123Z,60.45
2022-09-23T15:33:50.109Z,60.78
2022-09-23T15:36:23.754Z,59.28
2022-09-23T15:38:51.283Z,59.83
2022-09-23T15:41:19.845Z,61.67
2022-09-23T15:43:47.743Z,61.85
2022-09-23T15:46:18.930Z,60.28
2022-09-23T15:48:58.805Z,60.09
2022-09-23T15:51:27.567Z,62.01
2022-09-23T15:53:55.885Z,64.04
2022-09-23T15:56:23.475Z,65.11
2022-09-23T15:58:51.524Z,65.82
2022-09-23T16:01:28.712Z,66.07
2022-09-23T16:03:56.254Z,64.58
2022-09-23T16:06:24.642Z,63.02
2022-09-23T16:08:56.577Z,62.03
2022-09-23T16:11:26.143Z,62.10
2022-09-23T16:13:53.885Z,62.13
2022-09-23T16:16:24.091Z,62.17
2022-09-23T16:18:51.762Z,62.49
2022-09-23T16:21:22.389Z,62.55
2022-09-23T16:23:51.308Z,62.94
2022-09-23T16:26:27.332Z,62.79
2022-09-23T16:28:57.342Z,62.84
2022-09-23T16:31:27.115Z,63.11
2022-09-23T16:33:54.828Z,62.93
2022-09-23T16:36:28.226Z,63.25
2022-09-23T16:38:56.283Z,63.50
2022-09-23T16:41:31.869Z,63.75
2022-09-23T16:44:04.803Z,63.67
2022-09-23T16:46:32.681Z,63.85
2022-09-23T16:49:00.789Z,64.20
2022-09-23T16:51:38.951Z,64.53
2022-09-23T16:54:11.444Z,64.91
2022-09-23T16:56:45.621Z,65.11
2022-09-23T16:59:14.225Z,65.48
2022-09-23T17:02:00.117Z,65.99
2022-09-23T17:04:30.870Z,66.54
2022-09-23T17:06:58.204Z,67.14
2022-09-23T17:09:28.266Z,67.43
2022-09-23T17:12:01.852Z,67.72
2022-09-23T17:14:31.735Z,67.63
2022-09-23T17:16:59.509Z,67.45
2022-09-23T17:19:26.768Z,67.23
2022-09-23T17:21:55.182Z,67.39
2022-09-23T17:24:23.447Z,67.47
2022-09-23T17:26:53.310Z,67.36
2022-09-23T17:29:21.206Z,67.39
2022-09-23T17:31:48.942Z,67.52
2022-09-23T17:34:19.185Z,67.76
2022-09-23T17:36:46.434Z,68.08
2022-09-23T17:39:14.493Z,68.72
2022-09-23T17:41:41.869Z,68.68
2022-09-23T17:44:11.487Z,68.78
2022-09-23T17:46:39.049Z,69.15
2022-09-23T17:49:07.268Z,69.25
2022-09-23T17:51:35.493Z,69.64
2022-09-23T17:54:02.726Z,69.77
2022-09-23T17:56:30.608Z,70.15
2022-09-23T17:59:01.842Z,70.49
2022-09-23T18:01:30.038Z,70.47
2022-09-23T18:03:59.511Z,70.86
2022-09-23T18:06:29.463Z,70.92
2022-09-23T18:08:57.110Z,71.12
2022-09-23T18:11:32.815Z,71.11
2022-09-23T18:14:05.989Z,71.07
2022-09-23T18:16:38.475Z,71.16
2022-09-23T18:19:07.351Z,71.32
2022-09-23T18:21:37.210Z,71.53
2022-09-23T18:24:28.587Z,71.67
2022-09-23T18:26:55.277Z,71.53
2022-09-23T18:29:23.040Z,71.87
2022-09-23T18:31:51.670Z,72.40
2022-09-23T18:34:19.705Z,72.54
2022-09-23T18:36:47.669Z,72.27
2022-09-23T18:39:16.709Z,72.15
2022-09-23T18:41:44.201Z,72.27
2022-09-23T18:44:13.409Z,72.36
2022-09-23T18:46:41.270Z,72.25
2022-09-23T18:49:28.142Z,72.43
2022-09-23T18:51:57.476Z,72.75
2022-09-23T18:54:28.306Z,72.86
2022-09-23T18:56:56.707Z,73.05
2022-09-23T18:59:28.668Z,73.11
2022-09-23T19:01:57.027Z,73.11
2022-09-23T19:04:27.120Z,73.46
2022-09-23T19:06:56.930Z,73.65
2022-09-23T19:09:25.951Z,73.67
2022-09-23T19:11:54.219Z,73.76
2022-09-23T19:14:21.908Z,74.03
2022-09-23T19:16:49.872Z,74.31
2022-09-23T19:19:17.536Z,74.38
2022-09-23T19:21:45.823Z,74.61
2022-09-23T19:24:16.331Z,74.77
2022-09-23T19:26:45.334Z,75.06
2022-09-23T19:29:20.267Z,75.22
2022-09-23T19:31:48.546Z,75.49
2022-09-23T19:34:18.700Z,75.71
2022-09-23T19:36:48.291Z,75.95
2022-09-23T19:39:21.410Z,76.29
2022-09-23T19:41:49.731Z,76.26
2022-09-23T19:44:17.671Z,76.61
2022-09-23T19:46:51.921Z,76.82
2022-09-23T19:49:25.115Z,77.10
2022-09-23T19:51:56.207Z,77.30
2022-09-23T19:54:27.016Z,77.37
2022-09-23T19:56:54.749Z,77.53
2022-09-23T19:59:22.482Z,77.73
2022-09-23T20:01:50.731Z,77.79
2022-09-23T20:04:17.950Z,77.80
2022-09-23T20:06:46.618Z,77.72
2022-09-23T20:09:16.014Z,77.94
2022-09-23T20:11:44.653Z,77.91
2022-09-23T20:14:13.432Z,78.08
2022-09-23T20:16:41.381Z,78.17
2022-09-23T20:19:10.457Z,78.50
2022-09-23T20:21:38.208Z,78.58
2022-09-23T20:24:07.438Z,79.08
2022-09-23T20:26:54.126Z,79.31
2022-09-23T20:29:21.683Z,79.37
2022-09-23T20:31:49.831Z,79.59
2022-09-23T20:34:17.310Z,79.44
2022-09-23T20:36:45.194Z,79.65
2022-09-23T20:39:13.066Z,79.63
2022-09-23T20:41:40.941Z,79.83
2022-09-23T20:44:13.032Z,79.94
2022-09-23T20:46:48.504Z,80.23
2022-09-23T20:49:17.487Z,80.51
2022-09-23T20:51:45.141Z,80.83
2022-09-23T20:54:13.063Z,80.89
2022-09-23T20:56:40.598Z,81.39
2022-09-23T20:59:08.106Z,81.75
2022-09-23T21:01:37.288Z,82.02
2022-09-23T21:04:06.244Z,82.29
2022-09-23T21:06:37.815Z,82.52
2022-09-23T21:09:06.690Z,82.54
2022-09-23T21:11:34.807Z,82.60
2022-09-23T21:14:03.169Z,82.57
2022-09-23T21:16:31.483Z,82.68
2022-09-23T21:18:59.734Z,82.34
2022-09-23T21:21:27.464Z,82.44
2022-09-23T21:23:58.225Z,82.47
2022-09-23T21:26:31.745Z,82.55
2022-09-23T21:29:00.850Z,82.67
2022-09-23T21:31:34.877Z,82.93
2022-09-23T21:34:05.809Z,82.86
2022-09-23T21:36:35.304Z,82.71
2022-09-23T21:39:03.728Z,83.01
2022-09-23T21:41:31.488Z,82.92
2022-09-23T21:44:00.339Z,83.02
2022-09-23T21:46:28.988Z,83.40
2022-09-23T21:49:00.720Z,83.88
2022-09-23T21:51:30.007Z,84.13
2022-09-23T21:53:58.645Z,84.26
2022-09-23T21:56:28.209Z,84.54
2022-09-23T21:58:56.643Z,84.74
2022-09-23T22:01:34.049Z,84.72
2022-09-23T22:04:05.531Z,84.78
2022-09-23T22:06:32.967Z,84.73
2022-09-23T22:09:02.808Z,85.06
2022-09-23T22:11:51.151Z,85.29
2022-09-23T22:14:20.345Z,85.77
2022-09-23T22:16:48.087Z,85.74
2022-09-23T22:19:16.069Z,85.36
2022-09-23T22:21:45.802Z,85.69
2022-09-23T22:24:13.648Z,85.98
2022-09-23T22:26:43.548Z,86.46
2022-09-23T22:29:32.427Z,86.85
2022-09-23T22:32:19.648Z,87.14
2022-09-23T22:34:51.081Z,87.14
2022-09-23T22:37:22.098Z,86.81
2022-09-23T22:39:49.477Z,87.30
2022-09-23T22:42:17.250Z,87.76
2022-09-23T22:44:44.407Z,87.96
2022-09-23T22:47:11.849Z,88.20
2022-09-23T22:49:39.656Z,88.43
2022-09-23T22:52:11.572Z,87.42
2022-09-23T22:54:39.247Z,87.27
2022-09-23T22:57:09.560Z,87.25
2022-09-23T22:59:37.907Z,87.58
2022-09-23T23:02:08.282Z,87.62
2022-09-23T23:04:37.669Z,86.72
2022-09-23T23:07:06.968Z,86.50
2022-09-23T23:09:34.323Z,86.95
2022-09-23T23:12:03.116Z,87.37
2022-09-23T23:14:31.710Z,87.69
2022-09-23T23:16:59.922Z,88.23
2022-09-23T23:19:27.028Z,88.83
2022-09-23T23:21:54.266Z,88.98
2022-09-23T23:24:23.358Z,89.34
2022-09-23T23:26:51.628Z,89.90
2022-09-23T23:29:21.248Z,90.45
2022-09-23T23:31:48.883Z,90.66
2022-09-23T23:34:18.573Z,90.91
2022-09-23T23:36:46.682Z,91.07
2022-09-23T23:39:14.767Z,91.13
2022-09-23T23:41:42.724Z,91.70
2022-09-23T23:44:12.844Z,91.65
2022-09-23T23:46:39.993Z,91.65
2022-09-23T23:49:07.670Z,91.60
2022-09-23T23:51:34.908Z,90.59
2022-09-23T23:54:02.055Z,90.10
2022-09-23T23:56:31.269Z,89.91
2022-09-23T23:59:00.549Z,89.96
